MMAA/ACA METAR and TAF weather

Enter ICAO airport designator
Station Type Date Time Source
MMAA METAR 2021/06/24 01:49 UTC NOAA

MMAA 240149Z 00000KT 4SM -RA SCT012CB BKN080 OVC300 25/23 A2989 RMK 60405 8/963 OCNL LTGIC SW


Station Type Date Time Source
MMAA Decoded METAR 2021/06/24 01:49 UTC NOAA

Acapulco / G. Alvarez, Mexico (MMAA) 16-46N 099-45W
Jun 23, 2021 - 09:49 PM EDT / 2021.06.24 0149 UTC
Wind: Calm:0
Visibility: 4 mile(s):0
Sky conditions: overcast
Weather: light rain; Cumulonimbus clouds, lightning observed
Temperature: 77 F (25 C)
Dew Point: 73 F (23 C)
Relative Humidity: 88%
Pressure (altimeter): 29.89 in. Hg (1012 hPa)
ob: MMAA 240149Z 00000KT 4SM -RA SCT012CB BKN080 OVC300 25/23 A2989 RMK 60405 8/963 OCNL LTGIC SW
cycle: 2

Station Type Date Time Source
MMAA TAF 2021/06/24 06:46 UTC NOAA

TAF MMAA 240439Z 2406/2512 00000KT 4SM -RA SCT012CB BKN080 OVC300 TN24/2412Z TX32/2421Z
FM240800 00000KT 5SM HZ SCT015 BKN080 OVC300
TEMPO 2410/2414 4SM -RA
FM241800 12015KT P6SM BKN015 OVC080
TEMPO 2421/2501 5SM TSRA BKN015CB OVC080
FM250100 07008KT 5SM -RA BKN015 OVC080
FM250400 10005KT P6SM BKN015

Example: see airport list